KOLS/OLS METAR and TAF weather

Enter ICAO airport designator
Station Type Date Time Source
KOLS METAR 2019/02/20 17:54 UTC NOAA

KOLS 201754Z AUTO 00000KT 10SM CLR 06/M12 A2997 RMK AO2 SLP143 T00611117 10067 21067 58007


Station Type Date Time Source
KOLS Decoded METAR 2019/02/20 17:54 UTC NOAA

NOGALES INTERNATIONAL AIRPORT , AZ, United States (KOLS) 31-25N 110-51W 1184M
Feb 20, 2019 - 12:54 PM EST / 2019.02.20 1754 UTC
Wind: Calm:0
Visibility: 10 mile(s):0
Sky conditions: clear
Temperature: 43.0 F (6.1 C)
Dew Point: 10.9 F (-11.7 C)
Relative Humidity: 26%
Pressure (altimeter): 29.97 in. Hg (1014 hPa)
Pressure tendency: 0.02 inches (0.7 hPa) lower than three hours ago
ob: KOLS 201754Z AUTO 00000KT 10SM CLR 06/M12 A2997 RMK AO2 SLP143 T00611117 10067 21067 58007
cycle: 18

Station Type Date Time Source
KOLS TAF 2019/02/20 18:28 UTC NOAA

TAF KOLS 201726Z 2018/2118 VRB03KT P6SM FEW250
FM201900 22010G16KT P6SM SCT200
FM210400 17010G18KT P6SM BKN150
FM211200 18012G20KT P6SM BKN030 BKN120
FM211600 19018G28KT P6SM VCSH BKN030 OVC040


Example: see airport list